CheckWX is a tool to help pilots better visualize weather data.  It is not intended as a substitute for an official pre-flight weather briefing.

21:03:59 UTC

D55 METAR
Robertson Field Airport
Langdon, North Dakota, USA
Current

9 mins ago

KD55 232055Z AUTO 30006KT 10SM CLR M09/M13 A2982 RMK AO2
Observed
Feb-23 @ 20:55 UTC
Wind
  • 300° at 6 KTS
Visibility
10 SM
Flight Rules
VFR
Cloud Levels
  • Clear skies
Temperature
-9°C / 16°F
Dewpoint
-13°C / 9°F
Humidity
73%
Altimeter
29.82" Hg
Pressure
1009.82 hPa
Previous

29 mins ago

KD55 232035Z AUTO 31007KT 10SM CLR M09/M13 A2983 RMK AO2
Observed
Feb-23 @ 20:35 UTC
Wind
  • 310° at 7 KTS
Visibility
10 SM
Flight Rules
VFR
Cloud Levels
  • Clear skies
Temperature
-9°C / 16°F
Dewpoint
-13°C / 9°F
Humidity
73%
Altimeter
29.83" Hg
Pressure
1010.12 hPa
Previous

49 mins ago

KD55 232015Z AUTO 30007KT 10SM CLR M09/M12 A2984 RMK AO2
Observed
Feb-23 @ 20:15 UTC
Wind
  • 300° at 7 KTS
Visibility
10 SM
Flight Rules
VFR
Cloud Levels
  • Clear skies
Temperature
-9°C / 16°F
Dewpoint
-12°C / 10°F
Humidity
79%
Altimeter
29.84" Hg
Pressure
1010.52 hPa